sensor_id;sensor_type;location;lat;lon;timestamp;P1;durP1;ratioP1;P2;durP2;ratioP2
35612;SDS011;22054;51.646;7.078;2023-04-29T00:02:11;0.00;;;0.00;;
35612;SDS011;22054;51.646;7.078;2023-04-29T00:04:37;0.00;;;0.00;;
35612;SDS011;22054;51.646;7.078;2023-04-29T00:07:02;0.00;;;0.00;;
35612;SDS011;22054;51.646;7.078;2023-04-29T00:09:28;0.00;;;0.00;;
35612;SDS011;22054;51.646;7.078;2023-04-29T00:11:54;0.00;;;0.00;;
35612;SDS011;22054;51.646;7.078;2023-04-29T00:14:20;0.00;;;0.00;;
35612;SDS011;22054;51.646;7.078;2023-04-29T00:16:46;0.00;;;0.00;;
35612;SDS011;22054;51.646;7.078;2023-04-29T00:19:12;0.10;;;0.10;;
35612;SDS011;22054;51.646;7.078;2023-04-29T00:21:37;0.00;;;0.00;;
35612;SDS011;22054;51.646;7.078;2023-04-29T00:24:03;0.10;;;0.10;;
35612;SDS011;22054;51.646;7.078;2023-04-29T00:26:29;0.00;;;0.00;;
35612;SDS011;22054;51.646;7.078;2023-04-29T00:28:55;0.10;;;0.10;;
35612;SDS011;22054;51.646;7.078;2023-04-29T00:31:21;0.10;;;0.10;;
35612;SDS011;22054;51.646;7.078;2023-04-29T00:33:47;0.10;;;0.10;;
35612;SDS011;22054;51.646;7.078;2023-04-29T00:36:13;0.20;;;0.20;;
35612;SDS011;22054;51.646;7.078;2023-04-29T00:38:39;0.10;;;0.10;;
35612;SDS011;22054;51.646;7.078;2023-04-29T00:41:04;0.10;;;0.10;;
35612;SDS011;22054;51.646;7.078;2023-04-29T00:43:30;0.17;;;0.17;;
35612;SDS011;22054;51.646;7.078;2023-04-29T00:45:56;0.10;;;0.10;;
35612;SDS011;22054;51.646;7.078;2023-04-29T00:48:22;0.10;;;0.10;;
35612;SDS011;22054;51.646;7.078;2023-04-29T00:50:48;0.20;;;0.20;;
35612;SDS011;22054;51.646;7.078;2023-04-29T00:53:15;0.30;;;0.30;;
35612;SDS011;22054;51.646;7.078;2023-04-29T00:55:42;0.10;;;0.10;;
35612;SDS011;22054;51.646;7.078;2023-04-29T00:58:10;0.20;;;0.20;;
35612;SDS011;22054;51.646;7.078;2023-04-29T01:00:36;0.80;;;0.80;;
35612;SDS011;22054;51.646;7.078;2023-04-29T01:03:03;0.80;;;0.80;;
35612;SDS011;22054;51.646;7.078;2023-04-29T01:05:29;0.95;;;0.95;;
35612;SDS011;22054;51.646;7.078;2023-04-29T01:11:05;0.15;;;0.15;;
35612;SDS011;22054;51.646;7.078;2023-04-29T01:13:50;0.10;;;0.10;;
35612;SDS011;22054;51.646;7.078;2023-04-29T01:16:20;0.30;;;0.30;;
35612;SDS011;22054;51.646;7.078;2023-04-29T01:19:02;0.30;;;0.30;;
35612;SDS011;22054;51.646;7.078;2023-04-29T01:21:45;0.50;;;0.50;;
35612;SDS011;22054;51.646;7.078;2023-04-29T01:24:15;0.50;;;0.50;;
35612;SDS011;22054;51.646;7.078;2023-04-29T01:26:45;0.70;;;0.70;;
35612;SDS011;22054;51.646;7.078;2023-04-29T01:29:41;0.57;;;0.57;;
35612;SDS011;22054;51.646;7.078;2023-04-29T01:32:17;0.38;;;0.38;;
35612;SDS011;22054;51.646;7.078;2023-04-29T01:34:59;0.00;;;0.00;;
35612;SDS011;22054;51.646;7.078;2023-04-29T01:37:57;0.00;;;0.00;;
35612;SDS011;22054;51.646;7.078;2023-04-29T01:43:36;0.00;;;0.00;;
35612;SDS011;22054;51.646;7.078;2023-04-29T01:46:05;0.00;;;0.00;;
35612;SDS011;22054;51.646;7.078;2023-04-29T01:48:33;0.00;;;0.00;;
35612;SDS011;22054;51.646;7.078;2023-04-29T01:51:00;0.00;;;0.00;;
35612;SDS011;22054;51.646;7.078;2023-04-29T01:53:26;0.00;;;0.00;;
35612;SDS011;22054;51.646;7.078;2023-04-29T01:55:52;0.00;;;0.00;;
35612;SDS011;22054;51.646;7.078;2023-04-29T01:58:18;0.00;;;0.00;;
35612;SDS011;22054;51.646;7.078;2023-04-29T02:00:43;0.00;;;0.00;;
35612;SDS011;22054;51.646;7.078;2023-04-29T02:03:09;0.00;;;0.00;;
35612;SDS011;22054;51.646;7.078;2023-04-29T02:05:35;0.10;;;0.10;;
35612;SDS011;22054;51.646;7.078;2023-04-29T02:08:01;0.00;;;0.00;;
35612;SDS011;22054;51.646;7.078;2023-04-29T02:10:28;0.00;;;0.00;;
35612;SDS011;22054;51.646;7.078;2023-04-29T02:12:53;0.00;;;0.00;;
35612;SDS011;22054;51.646;7.078;2023-04-29T02:15:19;0.00;;;0.00;;
35612;SDS011;22054;51.646;7.078;2023-04-29T02:17:45;0.00;;;0.00;;
35612;SDS011;22054;51.646;7.078;2023-04-29T02:20:11;0.00;;;0.00;;
35612;SDS011;22054;51.646;7.078;2023-04-29T02:22:37;0.00;;;0.00;;
35612;SDS011;22054;51.646;7.078;2023-04-29T02:25:03;0.00;;;0.00;;
35612;SDS011;22054;51.646;7.078;2023-04-29T02:27:30;0.00;;;0.00;;
35612;SDS011;22054;51.646;7.078;2023-04-29T02:29:56;0.00;;;0.00;;
35612;SDS011;22054;51.646;7.078;2023-04-29T02:32:22;0.00;;;0.00;;
35612;SDS011;22054;51.646;7.078;2023-04-29T02:34:48;0.10;;;0.10;;
35612;SDS011;22054;51.646;7.078;2023-04-29T02:37:13;0.00;;;0.00;;
35612;SDS011;22054;51.646;7.078;2023-04-29T02:39:39;0.00;;;0.00;;
35612;SDS011;22054;51.646;7.078;2023-04-29T02:42:05;0.00;;;0.00;;
35612;SDS011;22054;51.646;7.078;2023-04-29T02:44:31;0.00;;;0.00;;
35612;SDS011;22054;51.646;7.078;2023-04-29T02:46:57;0.00;;;0.00;;
35612;SDS011;22054;51.646;7.078;2023-04-29T02:49:23;0.00;;;0.00;;
35612;SDS011;22054;51.646;7.078;2023-04-29T02:51:48;0.00;;;0.00;;
35612;SDS011;22054;51.646;7.078;2023-04-29T02:54:15;0.00;;;0.00;;
35612;SDS011;22054;51.646;7.078;2023-04-29T02:56:41;0.00;;;0.00;;
35612;SDS011;22054;51.646;7.078;2023-04-29T02:59:07;0.00;;;0.00;;
35612;SDS011;22054;51.646;7.078;2023-04-29T03:01:33;0.00;;;0.00;;
35612;SDS011;22054;51.646;7.078;2023-04-29T03:03:59;0.00;;;0.00;;
35612;SDS011;22054;51.646;7.078;2023-04-29T03:06:25;0.00;;;0.00;;
35612;SDS011;22054;51.646;7.078;2023-04-29T03:08:51;0.00;;;0.00;;
35612;SDS011;22054;51.646;7.078;2023-04-29T03:11:18;0.00;;;0.00;;
35612;SDS011;22054;51.646;7.078;2023-04-29T03:13:44;0.00;;;0.00;;
35612;SDS011;22054;51.646;7.078;2023-04-29T03:16:10;0.00;;;0.00;;
35612;SDS011;22054;51.646;7.078;2023-04-29T03:18:40;0.00;;;0.00;;
35612;SDS011;22054;51.646;7.078;2023-04-29T03:21:09;0.00;;;0.00;;
35612;SDS011;22054;51.646;7.078;2023-04-29T03:23:35;0.00;;;0.00;;
35612;SDS011;22054;51.646;7.078;2023-04-29T03:26:03;0.00;;;0.00;;
35612;SDS011;22054;51.646;7.078;2023-04-29T03:28:29;0.00;;;0.00;;
35612;SDS011;22054;51.646;7.078;2023-04-29T03:30:55;0.00;;;0.00;;
35612;SDS011;22054;51.646;7.078;2023-04-29T03:33:22;0.00;;;0.00;;
35612;SDS011;22054;51.646;7.078;2023-04-29T03:35:48;0.00;;;0.00;;
35612;SDS011;22054;51.646;7.078;2023-04-29T03:38:14;0.00;;;0.00;;
35612;SDS011;22054;51.646;7.078;2023-04-29T03:40:40;0.00;;;0.00;;
35612;SDS011;22054;51.646;7.078;2023-04-29T03:43:05;0.00;;;0.00;;
35612;SDS011;22054;51.646;7.078;2023-04-29T03:45:33;0.00;;;0.00;;
35612;SDS011;22054;51.646;7.078;2023-04-29T03:47:59;0.00;;;0.00;;
35612;SDS011;22054;51.646;7.078;2023-04-29T03:50:25;0.00;;;0.00;;
35612;SDS011;22054;51.646;7.078;2023-04-29T03:52:50;0.00;;;0.00;;
35612;SDS011;22054;51.646;7.078;2023-04-29T03:55:16;0.00;;;0.00;;
35612;SDS011;22054;51.646;7.078;2023-04-29T03:57:42;0.00;;;0.00;;
35612;SDS011;22054;51.646;7.078;2023-04-29T04:00:08;0.00;;;0.00;;
35612;SDS011;22054;51.646;7.078;2023-04-29T04:02:34;0.00;;;0.00;;
35612;SDS011;22054;51.646;7.078;2023-04-29T04:05:00;0.00;;;0.00;;
35612;SDS011;22054;51.646;7.078;2023-04-29T04:07:26;0.00;;;0.00;;
35612;SDS011;22054;51.646;7.078;2023-04-29T04:09:52;0.00;;;0.00;;
35612;SDS011;22054;51.646;7.078;2023-04-29T04:12:17;0.00;;;0.00;;
35612;SDS011;22054;51.646;7.078;2023-04-29T04:14:43;0.00;;;0.00;;
35612;SDS011;22054;51.646;7.078;2023-04-29T04:17:09;0.00;;;0.00;;
35612;SDS011;22054;51.646;7.078;2023-04-29T04:19:35;0.00;;;0.00;;
35612;SDS011;22054;51.646;7.078;2023-04-29T04:22:02;0.00;;;0.00;;
35612;SDS011;22054;51.646;7.078;2023-04-29T04:24:28;0.00;;;0.00;;
35612;SDS011;22054;51.646;7.078;2023-04-29T04:26:54;0.00;;;0.00;;
35612;SDS011;22054;51.646;7.078;2023-04-29T04:29:20;0.00;;;0.00;;
35612;SDS011;22054;51.646;7.078;2023-04-29T04:31:45;0.00;;;0.00;;
35612;SDS011;22054;51.646;7.078;2023-04-29T04:34:11;0.00;;;0.00;;
35612;SDS011;22054;51.646;7.078;2023-04-29T04:36:37;0.00;;;0.00;;
35612;SDS011;22054;51.646;7.078;2023-04-29T04:39:03;0.00;;;0.00;;
35612;SDS011;22054;51.646;7.078;2023-04-29T04:41:28;0.00;;;0.00;;
35612;SDS011;22054;51.646;7.078;2023-04-29T04:43:56;0.00;;;0.00;;
35612;SDS011;22054;51.646;7.078;2023-04-29T04:46:22;0.00;;;0.00;;
35612;SDS011;22054;51.646;7.078;2023-04-29T04:48:47;0.00;;;0.00;;
35612;SDS011;22054;51.646;7.078;2023-04-29T04:51:13;0.00;;;0.00;;
35612;SDS011;22054;51.646;7.078;2023-04-29T04:53:39;0.00;;;0.00;;
35612;SDS011;22054;51.646;7.078;2023-04-29T04:56:05;0.00;;;0.00;;
35612;SDS011;22054;51.646;7.078;2023-04-29T04:58:32;0.00;;;0.00;;
35612;SDS011;22054;51.646;7.078;2023-04-29T05:00:58;0.00;;;0.00;;
35612;SDS011;22054;51.646;7.078;2023-04-29T05:03:24;0.00;;;0.00;;
35612;SDS011;22054;51.646;7.078;2023-04-29T05:05:53;0.00;;;0.00;;
35612;SDS011;22054;51.646;7.078;2023-04-29T05:08:23;0.00;;;0.00;;
35612;SDS011;22054;51.646;7.078;2023-04-29T05:10:49;0.00;;;0.00;;
35612;SDS011;22054;51.646;7.078;2023-04-29T05:13:16;0.00;;;0.00;;
35612;SDS011;22054;51.646;7.078;2023-04-29T05:15:42;0.00;;;0.00;;
35612;SDS011;22054;51.646;7.078;2023-04-29T05:18:09;0.00;;;0.00;;
35612;SDS011;22054;51.646;7.078;2023-04-29T05:20:35;0.00;;;0.00;;
35612;SDS011;22054;51.646;7.078;2023-04-29T05:23:01;0.00;;;0.00;;
35612;SDS011;22054;51.646;7.078;2023-04-29T05:25:28;0.00;;;0.00;;
35612;SDS011;22054;51.646;7.078;2023-04-29T05:27:54;0.00;;;0.00;;
35612;SDS011;22054;51.646;7.078;2023-04-29T05:30:20;0.00;;;0.00;;
35612;SDS011;22054;51.646;7.078;2023-04-29T05:32:46;0.00;;;0.00;;
35612;SDS011;22054;51.646;7.078;2023-04-29T05:35:12;0.00;;;0.00;;
35612;SDS011;22054;51.646;7.078;2023-04-29T05:37:39;0.00;;;0.00;;
35612;SDS011;22054;51.646;7.078;2023-04-29T05:40:05;0.00;;;0.00;;
35612;SDS011;22054;51.646;7.078;2023-04-29T05:42:32;0.00;;;0.00;;
35612;SDS011;22054;51.646;7.078;2023-04-29T05:44:58;0.00;;;0.00;;
35612;SDS011;22054;51.646;7.078;2023-04-29T05:47:23;0.00;;;0.00;;
35612;SDS011;22054;51.646;7.078;2023-04-29T05:49:49;0.00;;;0.00;;
35612;SDS011;22054;51.646;7.078;2023-04-29T05:52:15;0.00;;;0.00;;
35612;SDS011;22054;51.646;7.078;2023-04-29T05:54:41;0.00;;;0.00;;
35612;SDS011;22054;51.646;7.078;2023-04-29T05:57:06;0.00;;;0.00;;
35612;SDS011;22054;51.646;7.078;2023-04-29T05:59:33;0.00;;;0.00;;
35612;SDS011;22054;51.646;7.078;2023-04-29T06:01:59;0.00;;;0.00;;
35612;SDS011;22054;51.646;7.078;2023-04-29T06:04:25;0.00;;;0.00;;
35612;SDS011;22054;51.646;7.078;2023-04-29T06:06:51;0.10;;;0.10;;
35612;SDS011;22054;51.646;7.078;2023-04-29T06:09:20;0.00;;;0.00;;
35612;SDS011;22054;51.646;7.078;2023-04-29T06:11:49;0.00;;;0.00;;
35612;SDS011;22054;51.646;7.078;2023-04-29T06:14:15;0.00;;;0.00;;
35612;SDS011;22054;51.646;7.078;2023-04-29T06:16:41;0.00;;;0.00;;
35612;SDS011;22054;51.646;7.078;2023-04-29T06:19:07;0.00;;;0.00;;
35612;SDS011;22054;51.646;7.078;2023-04-29T06:21:33;0.00;;;0.00;;
35612;SDS011;22054;51.646;7.078;2023-04-29T06:23:59;0.00;;;0.00;;
35612;SDS011;22054;51.646;7.078;2023-04-29T06:26:25;0.00;;;0.00;;
35612;SDS011;22054;51.646;7.078;2023-04-29T06:28:52;0.00;;;0.00;;
35612;SDS011;22054;51.646;7.078;2023-04-29T06:31:18;0.00;;;0.00;;
35612;SDS011;22054;51.646;7.078;2023-04-29T06:33:45;0.00;;;0.00;;
35612;SDS011;22054;51.646;7.078;2023-04-29T06:36:10;0.00;;;0.00;;
35612;SDS011;22054;51.646;7.078;2023-04-29T06:38:36;0.00;;;0.00;;
35612;SDS011;22054;51.646;7.078;2023-04-29T06:41:03;0.00;;;0.00;;
35612;SDS011;22054;51.646;7.078;2023-04-29T06:43:29;0.00;;;0.00;;
35612;SDS011;22054;51.646;7.078;2023-04-29T06:45:55;0.00;;;0.00;;
35612;SDS011;22054;51.646;7.078;2023-04-29T06:48:21;0.00;;;0.00;;
35612;SDS011;22054;51.646;7.078;2023-04-29T06:50:51;0.00;;;0.00;;
35612;SDS011;22054;51.646;7.078;2023-04-29T06:53:18;0.00;;;0.00;;
35612;SDS011;22054;51.646;7.078;2023-04-29T06:55:45;0.00;;;0.00;;
35612;SDS011;22054;51.646;7.078;2023-04-29T06:58:11;0.00;;;0.00;;
35612;SDS011;22054;51.646;7.078;2023-04-29T07:00:38;0.00;;;0.00;;
35612;SDS011;22054;51.646;7.078;2023-04-29T07:03:04;0.00;;;0.00;;
35612;SDS011;22054;51.646;7.078;2023-04-29T07:05:30;0.00;;;0.00;;
35612;SDS011;22054;51.646;7.078;2023-04-29T07:07:55;0.00;;;0.00;;
35612;SDS011;22054;51.646;7.078;2023-04-29T07:10:21;0.00;;;0.00;;
35612;SDS011;22054;51.646;7.078;2023-04-29T07:12:47;0.00;;;0.00;;
35612;SDS011;22054;51.646;7.078;2023-04-29T07:15:13;0.00;;;0.00;;
35612;SDS011;22054;51.646;7.078;2023-04-29T07:17:38;0.00;;;0.00;;
35612;SDS011;22054;51.646;7.078;2023-04-29T07:20:05;0.00;;;0.00;;
35612;SDS011;22054;51.646;7.078;2023-04-29T07:22:31;0.00;;;0.00;;
35612;SDS011;22054;51.646;7.078;2023-04-29T07:24:57;0.00;;;0.00;;
35612;SDS011;22054;51.646;7.078;2023-04-29T07:27:23;0.00;;;0.00;;
35612;SDS011;22054;51.646;7.078;2023-04-29T07:29:49;0.00;;;0.00;;
35612;SDS011;22054;51.646;7.078;2023-04-29T07:32:15;0.00;;;0.00;;
35612;SDS011;22054;51.646;7.078;2023-04-29T07:34:41;0.00;;;0.00;;
35612;SDS011;22054;51.646;7.078;2023-04-29T07:37:07;0.00;;;0.00;;
35612;SDS011;22054;51.646;7.078;2023-04-29T07:39:32;0.08;;;0.08;;
35612;SDS011;22054;51.646;7.078;2023-04-29T07:41:59;0.00;;;0.00;;
35612;SDS011;22054;51.646;7.078;2023-04-29T07:44:27;0.00;;;0.00;;
35612;SDS011;22054;51.646;7.078;2023-04-29T07:46:53;0.00;;;0.00;;
